Time;durP1;ratioP1;P1;durP2;ratioP2;P2;SDS_P1;SDS_P2;PMS_P1;PMS_P2;Temp;Humidity;BMP_temperature;BMP_pressure;BME280_temperature;BME280_humidity;BME280_pressure;Samples;Min_cycle;Max_cycle;Signal;HPM_P1;HPM_P2
2022/09/16 00:01:34;;;;;;;3.60;3.37;;;17.20;99.90;;;;;;5013669;28;20194;-65
2022/09/16 00:04:00;;;;;;;4.43;2.87;;;17.30;99.90;;;;;;5013354;28;20179;-65
2022/09/16 00:06:27;;;;;;;3.50;2.57;;;17.20;99.90;;;;;;5014539;28;20229;-65
2022/09/16 00:08:55;;;;;;;3.43;3.20;;;17.30;99.90;;;;;;5013600;28;20171;-65
2022/09/16 00:11:21;;;;;;;3.60;2.60;;;17.30;99.90;;;;;;5014329;28;20410;-65
2022/09/16 00:13:47;;;;;;;3.27;3.07;;;17.30;99.90;;;;;;5013593;28;20445;-71
2022/09/16 00:16:18;;;;;;;3.47;3.17;;;17.20;99.90;;;;;;5013008;28;20266;-66
2022/09/16 00:18:47;;;;;;;10.30;3.80;;;17.20;99.90;;;;;;5012947;28;21107;-71
2022/09/16 00:21:13;;;;;;;3.87;3.60;;;17.20;99.90;;;;;;5004380;28;20513;-65
2022/09/16 00:23:39;;;;;;;3.90;3.10;;;17.20;99.90;;;;;;4994583;28;20415;-65
2022/09/16 00:26:05;;;;;;;5.17;2.63;;;17.20;99.90;;;;;;4993581;28;20203;-65
2022/09/16 00:28:31;;;;;;;2.93;2.83;;;17.20;99.90;;;;;;4977868;28;20199;-65
2022/09/16 00:31:00;;;;;;;3.97;3.30;;;17.20;99.90;;;;;;5012282;28;20425;-65
2022/09/16 00:33:27;;;;;;;3.37;3.17;;;17.20;99.90;;;;;;5013305;28;20179;-65
2022/09/16 00:36:02;;;;;;;3.10;3.00;;;17.30;99.90;;;;;;5012808;28;20878;-65
2022/09/16 00:38:28;;;;;;;4.60;3.80;;;17.20;99.90;;;;;;5012836;28;20466;-65
2022/09/16 00:40:54;;;;;;;3.20;3.00;;;17.20;99.90;;;;;;5012989;28;20460;-65
2022/09/16 00:43:19;;;;;;;4.97;3.10;;;17.20;99.90;;;;;;5013719;28;20171;-65
2022/09/16 00:45:53;;;;;;;3.30;3.10;;;17.30;99.90;;;;;;5012402;28;20179;-65
2022/09/16 00:48:21;;;;;;;3.60;3.30;;;17.20;99.90;;;;;;5013692;28;20167;-65
2022/09/16 00:51:02;;;;;;;4.67;2.57;;;17.20;99.90;;;;;;5008553;28;20427;-71
2022/09/16 00:53:32;;;;;;;2.57;2.33;;;17.20;99.90;;;;;;4994259;28;20441;-65
2022/09/16 00:56:01;;;;;;;5.37;3.00;;;17.20;99.90;;;;;;4993245;28;20752;-65
2022/09/16 00:58:41;;;;;;;3.40;3.07;;;17.20;99.90;;;;;;4996539;28;20430;-65
2022/09/16 01:01:07;;;;;;;3.60;2.80;;;17.20;99.90;;;;;;5012630;28;20410;-65
2022/09/16 01:03:47;;;;;;;3.50;3.10;;;17.20;99.90;;;;;;5013374;28;20425;-65
2022/09/16 01:06:15;;;;;;;3.57;3.27;;;17.10;99.90;;;;;;5011721;28;20245;-65
2022/09/16 01:08:44;;;;;;;3.40;3.10;;;17.10;99.90;;;;;;5013051;28;20426;-65
2022/09/16 01:11:13;;;;;;;3.50;3.20;;;17.20;99.90;;;;;;5012498;28;20421;-65
2022/09/16 01:13:41;;;;;;;3.87;3.57;;;17.10;99.90;;;;;;5011961;28;20430;-65
2022/09/16 01:16:26;;;;;;;3.27;2.90;;;17.20;99.90;;;;;;5012369;28;20403;-65
2022/09/16 01:19:06;;;;;;;3.03;2.70;;;17.20;99.90;;;;;;5011864;28;21003;-70
2022/09/16 01:21:47;;;;;;;3.10;2.90;;;17.20;99.90;;;;;;5013128;28;20401;-65
2022/09/16 01:24:32;;;;;;;3.40;3.20;;;17.10;99.90;;;;;;5011142;28;20457;-65
2022/09/16 01:27:07;;;;;;;3.17;2.87;;;17.20;99.90;;;;;;5010348;28;20445;-65
2022/09/16 01:29:53;;;;;;;4.00;3.40;;;17.20;99.90;;;;;;5013049;28;20401;-69
2022/09/16 01:32:35;;;;;;;3.03;2.83;;;17.10;99.90;;;;;;4993347;28;20970;-65
2022/09/16 01:35:04;;;;;;;3.13;2.93;;;17.10;99.90;;;;;;4992240;28;20494;-65
2022/09/16 01:37:42;;;;;;;4.37;2.70;;;17.10;99.90;;;;;;4995751;28;20447;-66
2022/09/16 01:40:14;;;;;;;8.87;3.10;;;17.10;99.90;;;;;;4991781;28;20441;-65
2022/09/16 01:42:49;;;;;;;6.27;3.30;;;17.20;99.90;;;;;;4993207;28;20423;-66
2022/09/16 01:45:38;;;;;;;3.40;3.10;;;17.20;99.90;;;;;;4992076;28;20426;-65
2022/09/16 01:48:56;;;;;;;3.20;2.90;;;17.10;99.90;;;;;;4992318;28;20457;-65
2022/09/16 01:51:33;;;;;;;3.40;2.80;;;17.10;99.90;;;;;;4987042;28;20441;-65
2022/09/16 01:54:07;;;;;;;2.90;2.70;;;17.10;99.90;;;;;;5011911;28;20413;-66
2022/09/16 01:56:46;;;;;;;3.57;3.27;;;17.10;99.90;;;;;;5011669;28;20437;-65
2022/09/16 01:59:24;;;;;;;3.40;3.20;;;17.10;99.90;;;;;;5011604;28;21153;-65
2022/09/16 02:01:50;;;;;;;2.67;2.47;;;17.10;99.90;;;;;;4995113;28;20867;-65
2022/09/16 02:04:24;;;;;;;3.10;2.73;;;17.10;99.90;;;;;;5011919;28;20410;-65
2022/09/16 02:06:52;;;;;;;4.43;3.00;;;17.00;99.90;;;;;;5009965;28;20253;-65
2022/09/16 02:09:33;;;;;;;3.60;2.70;;;17.10;99.90;;;;;;5011976;28;20418;-65
2022/09/16 02:12:04;;;;;;;3.83;2.80;;;17.10;99.90;;;;;;5011613;28;20394;-65
2022/09/16 02:14:37;;;;;;;4.70;2.70;;;17.10;99.90;;;;;;5010187;28;20434;-65
2022/09/16 02:17:24;;;;;;;3.20;2.90;;;17.10;99.90;;;;;;5011690;28;20394;-66
2022/09/16 02:20:13;;;;;;;2.60;2.40;;;17.00;99.90;;;;;;5012466;28;20403;-65
2022/09/16 02:22:53;;;;;;;3.13;2.90;;;17.00;99.90;;;;;;5012125;28;20875;-65
2022/09/16 02:25:20;;;;;;;7.87;3.80;;;17.00;99.90;;;;;;5011215;28;20398;-70
2022/09/16 02:27:49;;;;;;;2.90;2.80;;;17.00;99.90;;;;;;5011576;28;20457;-65
2022/09/16 02:30:17;;;;;;;4.07;2.80;;;17.00;99.90;;;;;;5011180;28;20502;-65
2022/09/16 02:32:52;;;;;;;4.43;3.20;;;17.00;99.90;;;;;;5012251;28;20442;-65
2022/09/16 02:35:20;;;;;;;2.70;2.50;;;17.00;99.90;;;;;;5010201;28;20524;-65
2022/09/16 02:38:03;;;;;;;3.93;2.60;;;17.00;99.90;;;;;;5012612;28;20465;-66
2022/09/16 02:40:36;;;;;;;3.43;3.13;;;17.00;99.90;;;;;;5016221;28;20492;-65
2022/09/16 02:43:03;;;;;;;5.13;3.10;;;17.00;99.90;;;;;;5015299;28;20406;-65
2022/09/16 02:45:48;;;;;;;4.70;3.07;;;17.00;99.90;;;;;;4997380;28;20932;-65
2022/09/16 02:48:35;;;;;;;3.80;3.40;;;17.00;99.90;;;;;;4974844;28;20438;-65
2022/09/16 02:51:06;;;;;;;3.13;2.83;;;16.90;99.90;;;;;;5015251;28;20435;-66
2022/09/16 02:53:44;;;;;;;4.40;4.00;;;16.90;99.90;;;;;;5015853;28;20390;-65
2022/09/16 02:56:32;;;;;;;4.53;3.70;;;16.90;99.90;;;;;;5014957;28;20421;-66
2022/09/16 02:58:59;;;;;;;3.37;3.27;;;17.00;99.90;;;;;;4979725;28;20434;-71
2022/09/16 03:01:27;;;;;;;4.27;3.27;;;17.00;99.90;;;;;;5014051;28;20430;-65
2022/09/16 03:03:56;;;;;;;3.93;2.90;;;17.00;99.90;;;;;;5014083;28;20936;-65
2022/09/16 03:06:26;;;;;;;3.33;3.00;;;16.90;99.90;;;;;;5014932;28;20470;-66
2022/09/16 03:08:56;;;;;;;3.40;3.17;;;16.90;99.90;;;;;;5011961;28;20445;-65
2022/09/16 03:11:37;;;;;;;3.97;3.60;;;16.90;99.90;;;;;;5014940;28;20417;-66
2022/09/16 03:14:37;;;;;;;5.10;3.27;;;16.90;99.90;;;;;;5014582;28;20440;-66
2022/09/16 03:17:45;;;;;;;4.00;3.10;;;17.00;99.90;;;;;;4975929;28;20443;-67
2022/09/16 03:20:22;;;;;;;7.10;3.30;;;16.90;99.90;;;;;;4994997;28;20384;-66
2022/09/16 03:23:25;;;;;;;3.43;3.20;;;16.90;99.90;;;;;;4995747;28;20446;-66
2022/09/16 03:26:09;;;;;;;3.13;2.90;;;16.90;99.90;;;;;;4992539;28;20454;-66
2022/09/16 03:28:59;;;;;;;4.27;3.40;;;16.90;99.90;;;;;;5015338;28;20754;-66
2022/09/16 03:31:36;;;;;;;6.47;3.13;;;16.90;99.90;;;;;;5014245;28;20452;-66
2022/09/16 03:34:12;;;;;;;7.87;3.57;;;16.90;99.90;;;;;;5014191;28;20430;-66
2022/09/16 03:36:46;;;;;;;2.90;2.70;;;16.80;99.90;;;;;;5014637;28;20457;-66
2022/09/16 03:39:13;;;;;;;2.77;2.67;;;16.80;99.90;;;;;;5014221;28;20406;-66
2022/09/16 03:41:39;;;;;;;5.97;2.77;;;16.80;99.90;;;;;;5014831;28;20402;-66
2022/09/16 03:44:05;;;;;;;5.30;3.77;;;16.80;99.90;;;;;;5014117;28;20902;-66
2022/09/16 03:46:31;;;;;;;3.00;2.73;;;16.80;99.90;;;;;;5010977;28;20472;-66
2022/09/16 03:48:57;;;;;;;2.93;2.43;;;16.80;99.90;;;;;;5012774;28;20631;-66
2022/09/16 03:51:24;;;;;;;3.50;3.20;;;16.80;99.90;;;;;;5014212;28;20410;-66
2022/09/16 03:53:51;;;;;;;2.60;2.40;;;16.70;99.90;;;;;;5014576;28;20822;-66
2022/09/16 03:56:17;;;;;;;3.00;2.90;;;16.70;99.90;;;;;;5009411;28;20457;-67
2022/09/16 03:58:43;;;;;;;3.00;2.80;;;16.70;99.90;;;;;;5012152;28;20430;-66
2022/09/16 04:01:08;;;;;;;3.43;3.03;;;16.80;99.90;;;;;;4995232;28;20191;-66
2022/09/16 04:03:36;;;;;;;4.40;3.97;;;16.80;99.90;;;;;;4995057;28;20187;-66
2022/09/16 04:06:02;;;;;;;2.93;2.73;;;16.80;99.90;;;;;;5011340;28;20238;-71
2022/09/16 04:08:31;;;;;;;3.70;3.50;;;16.70;99.90;;;;;;5003102;28;20868;-66
2022/09/16 04:11:03;;;;;;;3.50;3.20;;;16.80;99.90;;;;;;5013382;28;20843;-66
2022/09/16 04:13:30;;;;;;;3.80;3.50;;;16.70;99.90;;;;;;5014020;28;20398;-66
2022/09/16 04:15:56;;;;;;;3.43;3.20;;;16.70;99.90;;;;;;5012493;28;20459;-66
2022/09/16 04:18:21;;;;;;;3.00;2.70;;;16.70;99.90;;;;;;5013171;28;20406;-65
2022/09/16 04:20:47;;;;;;;2.70;2.50;;;16.80;99.90;;;;;;5014256;28;20174;-65
2022/09/16 04:23:13;;;;;;;4.20;3.43;;;16.70;99.90;;;;;;5013372;28;20176;-67
2022/09/16 04:25:39;;;;;;;8.37;3.00;;;16.70;99.90;;;;;;5007940;28;20182;-67
2022/09/16 04:28:06;;;;;;;7.13;3.80;;;16.80;99.90;;;;;;5012896;28;20219;-66
2022/09/16 04:30:32;;;;;;;4.10;3.80;;;16.70;99.90;;;;;;5014020;28;20406;-65
2022/09/16 04:32:58;;;;;;;3.70;3.30;;;16.70;99.90;;;;;;5013672;28;20933;-65
2022/09/16 04:35:24;;;;;;;3.83;3.10;;;16.70;99.90;;;;;;5012687;28;21204;-66
2022/09/16 04:37:51;;;;;;;3.63;2.97;;;16.60;99.90;;;;;;5005832;28;20648;-66
2022/09/16 04:40:18;;;;;;;4.60;4.00;;;16.60;99.90;;;;;;4993431;28;20415;-65
2022/09/16 04:42:50;;;;;;;5.57;4.33;;;16.60;99.90;;;;;;4994303;28;20907;-65
2022/09/16 04:45:16;;;;;;;3.97;3.60;;;16.60;99.90;;;;;;4993349;28;20774;-65
2022/09/16 04:47:42;;;;;;;3.10;2.90;;;16.60;99.90;;;;;;4993957;28;20458;-66
2022/09/16 04:50:08;;;;;;;3.50;3.20;;;16.60;99.90;;;;;;5012173;28;20425;-66
2022/09/16 04:52:34;;;;;;;6.30;3.07;;;16.60;99.90;;;;;;5013604;28;20189;-65
2022/09/16 04:54:59;;;;;;;4.03;3.37;;;16.60;99.90;;;;;;5013569;28;20409;-65
2022/09/16 04:57:28;;;;;;;4.20;3.43;;;16.60;99.90;;;;;;5012840;28;20222;-65
2022/09/16 04:59:54;;;;;;;6.47;3.70;;;16.60;99.90;;;;;;5013549;28;20179;-65
2022/09/16 05:02:19;;;;;;;9.47;7.07;;;16.50;99.90;;;;;;5012307;28;20409;-65
2022/09/16 05:04:45;;;;;;;6.70;5.63;;;16.60;99.90;;;;;;5013365;28;20189;-65
2022/09/16 05:07:11;;;;;;;3.70;2.80;;;16.50;99.90;;;;;;4990443;28;20217;-66
2022/09/16 05:09:37;;;;;;;5.20;3.83;;;16.50;99.90;;;;;;4993644;28;20191;-65
2022/09/16 05:12:02;;;;;;;6.47;3.63;;;16.50;99.90;;;;;;4993574;28;20254;-71
2022/09/16 05:14:28;;;;;;;3.87;3.50;;;16.40;99.90;;;;;;4992799;28;20172;-65
2022/09/16 05:16:54;;;;;;;3.63;3.37;;;16.50;99.90;;;;;;5000676;28;20236;-65
2022/09/16 05:19:19;;;;;;;4.77;3.97;;;16.50;99.90;;;;;;5012330;28;20183;-65
2022/09/16 05:21:45;;;;;;;4.60;4.00;;;16.50;99.90;;;;;;5013410;28;20194;-65
2022/09/16 05:24:12;;;;;;;3.80;3.40;;;16.40;99.90;;;;;;5012009;28;20191;-65
2022/09/16 05:26:41;;;;;;;3.90;3.60;;;16.40;99.90;;;;;;5012487;28;20246;-65
2022/09/16 05:29:10;;;;;;;4.40;3.40;;;16.40;99.90;;;;;;4996677;28;20497;-70
2022/09/16 05:31:38;;;;;;;4.13;3.83;;;16.30;99.90;;;;;;5002960;28;20434;-67
2022/09/16 05:34:10;;;;;;;8.10;4.37;;;16.30;99.90;;;;;;5008475;28;20516;-71
2022/09/16 05:36:37;;;;;;;4.27;4.00;;;16.30;99.90;;;;;;5005172;28;20472;-64
2022/09/16 05:39:04;;;;;;;4.20;3.83;;;16.20;99.90;;;;;;5010901;28;20951;-64
2022/09/16 05:41:30;;;;;;;7.57;4.53;;;16.20;99.90;;;;;;5012029;28;20431;-64
2022/09/16 05:44:00;;;;;;;5.13;4.73;;;16.20;99.90;;;;;;5012740;28;20418;-64
2022/09/16 05:46:27;;;;;;;5.77;4.03;;;16.20;99.90;;;;;;5011721;28;20501;-64
2022/09/16 05:48:54;;;;;;;4.87;3.60;;;16.10;99.90;;;;;;5012932;28;20440;-64
2022/09/16 05:51:21;;;;;;;5.63;3.20;;;16.10;99.90;;;;;;5011546;28;20432;-64
2022/09/16 05:53:48;;;;;;;6.27;3.63;;;16.10;99.90;;;;;;5000240;28;20431;-64
2022/09/16 05:56:24;;;;;;;3.93;3.03;;;16.00;99.90;;;;;;5010873;28;20517;-64
2022/09/16 05:58:54;;;;;;;7.40;3.40;;;16.00;99.90;;;;;;5010712;28;20519;-64
2022/09/16 06:01:23;;;;;;;4.70;4.10;;;16.00;99.90;;;;;;5009566;28;20508;-64
2022/09/16 06:03:50;;;;;;;4.03;3.63;;;16.00;99.90;;;;;;5010824;28;20521;-64
2022/09/16 06:06:30;;;;;;;9.90;5.00;;;16.00;99.90;;;;;;5010814;28;20575;-65
2022/09/16 06:09:08;;;;;;;3.53;3.33;;;16.00;99.90;;;;;;4999809;28;20956;-66
2022/09/16 06:11:40;;;;;;;4.30;4.00;;;15.90;99.90;;;;;;5004216;28;20520;-64
2022/09/16 06:14:07;;;;;;;4.40;4.10;;;15.90;99.90;;;;;;5016033;28;20436;-65
2022/09/16 06:16:33;;;;;;;5.17;4.00;;;15.90;99.90;;;;;;5003786;28;20440;-64
2022/09/16 06:19:01;;;;;;;4.10;3.30;;;15.90;99.90;;;;;;5016598;28;20433;-64
2022/09/16 06:21:28;;;;;;;3.63;3.33;;;15.90;99.90;;;;;;5015504;28;20471;-64
2022/09/16 06:23:55;;;;;;;6.03;3.60;;;16.00;99.90;;;;;;5018049;28;20436;-65
2022/09/16 06:26:23;;;;;;;5.70;4.90;;;15.90;99.90;;;;;;5014314;28;20465;-64
2022/09/16 06:28:50;;;;;;;3.80;3.50;;;15.90;99.90;;;;;;5016694;28;20429;-70
2022/09/16 06:31:24;;;;;;;6.80;3.60;;;15.90;99.90;;;;;;5016926;28;20433;-64
2022/09/16 06:33:51;;;;;;;6.20;3.87;;;15.90;99.90;;;;;;5016144;28;20498;-64
2022/09/16 06:36:26;;;;;;;3.77;3.30;;;15.90;99.90;;;;;;5011876;28;20476;-67
2022/09/16 06:38:51;;;;;;;4.57;3.40;;;16.00;99.90;;;;;;5017824;28;20421;-64
2022/09/16 06:41:19;;;;;;;4.03;3.37;;;16.00;99.90;;;;;;5015057;28;20950;-64
2022/09/16 06:43:45;;;;;;;6.67;4.30;;;16.10;99.90;;;;;;5017007;28;20186;-64
2022/09/16 06:46:20;;;;;;;7.37;4.63;;;16.10;99.90;;;;;;5014984;28;20881;-72
2022/09/16 06:48:52;;;;;;;4.27;4.00;;;16.10;99.90;;;;;;5017747;28;20737;-64
2022/09/16 06:51:29;;;;;;;4.07;3.77;;;16.10;99.90;;;;;;5017096;28;20498;-65
2022/09/16 06:53:59;;;;;;;4.00;3.70;;;16.10;99.90;;;;;;5001221;28;20781;-64
2022/09/16 06:56:26;;;;;;;5.00;4.63;;;16.10;99.90;;;;;;5013143;28;20505;-64
2022/09/16 06:58:52;;;;;;;6.20;3.90;;;16.20;99.90;;;;;;5010830;28;20433;-66
2022/09/16 07:01:23;;;;;;;3.80;3.40;;;16.20;99.90;;;;;;5016727;28;20787;-65
2022/09/16 07:03:50;;;;;;;5.17;4.67;;;16.20;99.90;;;;;;5018490;28;20414;-64
2022/09/16 07:06:19;;;;;;;4.30;3.90;;;16.20;99.90;;;;;;5013708;28;20969;-64
2022/09/16 07:08:45;;;;;;;3.67;3.47;;;16.20;99.90;;;;;;5016246;28;20491;-64
2022/09/16 07:11:13;;;;;;;4.00;3.70;;;16.20;99.90;;;;;;5016926;28;20414;-71
2022/09/16 07:13:40;;;;;;;4.03;3.20;;;16.20;99.90;;;;;;5018405;28;20757;-64
2022/09/16 07:16:08;;;;;;;7.23;3.47;;;16.20;99.90;;;;;;5016260;28;20511;-65
2022/09/16 07:18:34;;;;;;;4.20;3.80;;;16.20;99.90;;;;;;5017542;28;20428;-64
2022/09/16 07:21:04;;;;;;;6.03;3.40;;;16.20;99.90;;;;;;5017304;28;20425;-64
2022/09/16 07:23:33;;;;;;;4.63;3.93;;;16.20;99.90;;;;;;5013958;28;20191;-64
2022/09/16 07:26:13;;;;;;;3.70;3.00;;;16.30;99.90;;;;;;5014658;28;20406;-64
2022/09/16 07:28:40;;;;;;;3.47;3.10;;;16.30;99.90;;;;;;5013235;28;20440;-64
2022/09/16 07:31:08;;;;;;;7.00;3.30;;;16.30;99.90;;;;;;5012112;28;20457;-64
2022/09/16 07:33:40;;;;;;;6.30;3.93;;;16.40;99.90;;;;;;4978729;28;20442;-64
2022/09/16 07:36:09;;;;;;;3.90;3.50;;;16.40;99.90;;;;;;5015068;28;20465;-64
2022/09/16 07:38:35;;;;;;;3.83;3.53;;;16.40;99.90;;;;;;5014818;28;20441;-64
2022/09/16 07:41:15;;;;;;;4.60;4.20;;;16.40;99.90;;;;;;5015363;28;20422;-64
2022/09/16 07:43:42;;;;;;;4.60;4.10;;;16.40;99.90;;;;;;5015351;28;20394;-64
2022/09/16 07:46:10;;;;;;;6.27;4.83;;;16.50;99.90;;;;;;5014800;28;21044;-64
2022/09/16 07:48:36;;;;;;;6.50;4.97;;;16.50;99.90;;;;;;5014633;28;20414;-64
2022/09/16 07:51:11;;;;;;;7.53;4.60;;;16.50;99.90;;;;;;5015176;28;20502;-64
2022/09/16 07:53:38;;;;;;;5.73;5.30;;;16.50;99.90;;;;;;5015211;28;20723;-64
2022/09/16 07:56:06;;;;;;;5.80;5.30;;;16.50;99.90;;;;;;5015075;28;20410;-64
2022/09/16 07:58:32;;;;;;;7.57;6.10;;;16.50;99.90;;;;;;5014337;28;20816;-65
2022/09/16 08:00:58;;;;;;;7.97;6.90;;;16.50;99.90;;;;;;5014894;28;20414;-64
2022/09/16 08:03:24;;;;;;;7.53;6.83;;;16.50;99.90;;;;;;5013329;28;20773;-65
2022/09/16 08:05:50;;;;;;;7.73;6.97;;;16.50;99.90;;;;;;4997099;28;20430;-64
2022/09/16 08:08:16;;;;;;;7.53;6.73;;;16.50;99.90;;;;;;5014464;28;20579;-64
2022/09/16 08:10:42;;;;;;;7.87;7.27;;;16.60;99.90;;;;;;5014647;28;20437;-65
2022/09/16 08:13:08;;;;;;;7.90;7.20;;;16.60;99.90;;;;;;5014663;28;20293;-64
2022/09/16 08:15:34;;;;;;;11.00;7.60;;;16.70;99.90;;;;;;5013938;28;20178;-64
2022/09/16 08:17:59;;;;;;;9.10;7.10;;;16.70;99.90;;;;;;5014609;28;20418;-65
2022/09/16 08:20:27;;;;;;;9.90;9.00;;;16.80;99.90;;;;;;4962472;28;20437;-65
2022/09/16 08:22:52;;;;;;;9.33;8.33;;;16.80;99.90;;;;;;5014240;28;20182;-65
2022/09/16 08:25:18;;;;;;;8.30;7.60;;;16.90;99.90;;;;;;5013861;28;20799;-65
2022/09/16 08:27:44;;;;;;;9.13;8.27;;;16.90;99.90;;;;;;5014444;28;20261;-65
2022/09/16 08:30:10;;;;;;;9.90;9.00;;;17.00;99.90;;;;;;5014256;28;20175;-64
2022/09/16 08:32:36;;;;;;;8.97;8.17;;;17.00;99.90;;;;;;5013653;28;20251;-64
2022/09/16 08:35:02;;;;;;;9.40;8.60;;;17.10;99.90;;;;;;5013626;28;20544;-64
2022/09/16 08:37:28;;;;;;;10.53;9.60;;;17.00;99.90;;;;;;5013840;28;20186;-64
2022/09/16 08:39:54;;;;;;;10.30;9.40;;;17.10;99.90;;;;;;5014335;28;20412;-64
2022/09/16 08:43:09;;;;;;;10.80;9.97;;;17.20;99.90;;;;;;5013589;28;20175;-64
2022/09/16 08:45:54;;;;;;;11.27;10.20;;;17.30;99.90;;;;;;5005129;28;20481;-64
2022/09/16 08:48:30;;;;;;;11.20;10.30;;;17.30;99.90;;;;;;4996073;28;20783;-65
2022/09/16 08:50:59;;;;;;;10.33;9.23;;;17.30;99.90;;;;;;5014097;28;20493;-65
2022/09/16 08:53:36;;;;;;;10.10;9.20;;;17.40;99.90;;;;;;5013414;28;20434;-65
2022/09/16 08:56:10;;;;;;;8.87;8.17;;;17.40;99.90;;;;;;5013969;28;20405;-65
2022/09/16 08:58:41;;;;;;;10.37;9.57;;;17.50;98.50;;;;;;5013348;28;20425;-64
2022/09/16 09:01:33;;;;;;;10.23;9.27;;;17.50;99.00;;;;;;5013873;28;20403;-65
2022/09/16 09:04:00;;;;;;;10.10;9.20;;;17.60;98.10;;;;;;5013837;28;20948;-65
2022/09/16 09:06:51;;;;;;;10.13;9.20;;;17.70;99.00;;;;;;5013136;28;20473;-64
2022/09/16 09:09:35;;;;;;;8.90;8.00;;;17.70;99.90;;;;;;5013334;28;20432;-73
2022/09/16 09:12:16;;;;;;;9.80;8.90;;;17.70;98.70;;;;;;5013782;28;20871;-64
2022/09/16 09:15:00;;;;;;;8.00;7.40;;;17.60;98.00;;;;;;4993856;28;20433;-65
2022/09/16 09:17:51;;;;;;;7.40;6.80;;;17.60;99.40;;;;;;4993606;28;20427;-65
2022/09/16 09:20:46;;;;;;;7.73;7.13;;;17.60;98.10;;;;;;5008284;28;20844;-66
2022/09/16 09:23:34;;;;;;;7.20;6.70;;;17.50;99.10;;;;;;4926672;28;20470;-65
2022/09/16 09:26:09;;;;;;;6.93;6.30;;;17.50;99.60;;;;;;5013384;28;20486;-65
2022/09/16 09:29:15;;;;;;;6.30;5.80;;;17.70;99.60;;;;;;5012773;28;20413;-65
2022/09/16 09:32:06;;;;;;;5.43;4.97;;;18.00;99.90;;;;;;5012820;28;20398;-65
2022/09/16 09:34:56;;;;;;;3.63;3.43;;;18.30;98.60;;;;;;5012576;28;20422;-65
2022/09/16 09:37:47;;;;;;;4.20;3.80;;;18.30;95.60;;;;;;4993134;28;20426;-65
2022/09/16 09:40:34;;;;;;;6.00;4.10;;;18.30;95.20;;;;;;4993505;28;20422;-65
2022/09/16 09:43:18;;;;;;;4.60;4.23;;;18.30;95.60;;;;;;4993555;28;20493;-65
2022/09/16 09:45:59;;;;;;;6.40;5.00;;;18.20;95.40;;;;;;4992485;28;20441;-65
2022/09/16 09:48:32;;;;;;;4.67;4.27;;;18.20;96.00;;;;;;4992213;28;20425;-65
2022/09/16 09:51:04;;;;;;;4.70;3.80;;;18.20;95.70;;;;;;4992856;28;20433;-65
2022/09/16 09:53:40;;;;;;;4.60;4.30;;;18.20;95.00;;;;;;4992868;28;20453;-65
2022/09/16 09:56:29;;;;;;;4.43;4.03;;;18.20;95.30;;;;;;4993317;28;20403;-65
2022/09/16 09:58:57;;;;;;;4.13;3.83;;;18.00;95.60;;;;;;4993128;28;20758;-65
2022/09/16 10:01:23;;;;;;;3.90;3.47;;;18.00;95.90;;;;;;4992687;28;20806;-65
2022/09/16 10:03:53;;;;;;;3.40;3.20;;;17.90;96.60;;;;;;4993246;28;20407;-64
2022/09/16 10:06:25;;;;;;;3.87;3.57;;;17.90;95.30;;;;;;4993328;28;20237;-64
2022/09/16 10:08:54;;;;;;;3.20;3.00;;;17.90;95.50;;;;;;4993354;28;20402;-65
2022/09/16 10:11:23;;;;;;;3.23;3.00;;;17.80;96.10;;;;;;4993155;28;20407;-73
2022/09/16 10:13:54;;;;;;;3.53;3.10;;;17.70;96.70;;;;;;4992907;28;20913;-69
2022/09/16 10:16:23;;;;;;;3.20;2.97;;;17.60;97.80;;;;;;4993046;28;20415;-75
2022/09/16 10:19:00;;;;;;;5.90;5.27;;;17.60;98.70;;;;;;4993104;28;20407;-65
2022/09/16 10:21:38;;;;;;;3.70;3.40;;;17.50;99.40;;;;;;4913358;29;20903;-65
2022/09/16 10:24:04;;;;;;;3.80;2.83;;;17.50;99.30;;;;;;4914103;29;20417;-67
2022/09/16 10:26:39;;;;;;;3.97;3.67;;;17.50;99.20;;;;;;4913305;29;20474;-64
2022/09/16 10:29:16;;;;;;;3.20;2.90;;;17.50;99.00;;;;;;4914136;29;20417;-64
2022/09/16 10:31:42;;;;;;;3.37;3.17;;;17.40;99.10;;;;;;4913400;29;20914;-64
2022/09/16 10:34:17;;;;;;;2.87;2.77;;;17.40;99.50;;;;;;4914134;29;20458;-64
2022/09/16 10:36:43;;;;;;;3.10;3.00;;;17.40;99.20;;;;;;4944965;29;20471;-64
2022/09/16 10:39:22;;;;;;;3.43;2.83;;;17.40;99.00;;;;;;4952101;29;20435;-64
2022/09/16 10:41:49;;;;;;;3.37;3.17;;;17.40;99.90;;;;;;4951115;29;20188;-65
2022/09/16 10:44:20;;;;;;;3.33;3.07;;;17.50;99.90;;;;;;4949064;29;20447;-65
2022/09/16 10:47:23;;;;;;;5.03;4.23;;;17.50;99.60;;;;;;4951073;29;21030;-64
2022/09/16 10:49:55;;;;;;;4.50;3.50;;;17.60;99.40;;;;;;4937930;29;20445;-64
2022/09/16 10:52:24;;;;;;;3.80;3.50;;;17.70;98.30;;;;;;4951721;28;20427;-64
2022/09/16 10:54:50;;;;;;;4.20;3.90;;;17.90;98.50;;;;;;4973379;28;20408;-64
2022/09/16 10:57:23;;;;;;;4.70;4.10;;;18.10;98.90;;;;;;4973343;28;20420;-65
2022/09/16 11:00:21;;;;;;;4.20;3.87;;;18.40;99.00;;;;;;4975887;28;20513;-65
2022/09/16 11:03:14;;;;;;;4.23;3.93;;;18.70;96.00;;;;;;4976479;28;20423;-65
2022/09/16 11:05:52;;;;;;;4.10;3.80;;;19.10;94.50;;;;;;4976578;28;20475;-65
2022/09/16 11:08:45;;;;;;;4.70;4.30;;;19.20;92.60;;;;;;4976833;28;20542;-65
2022/09/16 11:11:55;;;;;;;3.80;3.50;;;19.40;92.40;;;;;;4973984;28;20404;-65
2022/09/16 11:14:35;;;;;;;3.13;2.67;;;19.60;89.10;;;;;;4974691;28;20799;-65
2022/09/16 11:17:16;;;;;;;3.43;3.10;;;19.60;86.30;;;;;;4974470;28;20851;-65
2022/09/16 11:20:03;;;;;;;3.97;3.77;;;19.80;87.90;;;;;;4980739;28;20945;-65
2022/09/16 11:22:51;;;;;;;3.70;3.50;;;20.00;90.40;;;;;;4993278;28;20426;-65
2022/09/16 11:25:40;;;;;;;4.40;4.10;;;20.20;86.00;;;;;;4993785;28;20907;-64
2022/09/16 11:28:24;;;;;;;3.80;3.60;;;20.20;84.90;;;;;;4992090;28;20470;-65
2022/09/16 11:31:16;;;;;;;3.97;3.77;;;20.30;88.00;;;;;;4993518;28;20403;-64
2022/09/16 11:34:00;;;;;;;3.20;3.00;;;20.30;87.10;;;;;;4993105;28;20414;-65
2022/09/16 11:36:45;;;;;;;3.23;3.03;;;20.20;85.70;;;;;;4988578;28;20462;-69
2022/09/16 11:39:38;;;;;;;3.00;2.80;;;20.30;87.10;;;;;;5013151;28;20464;-65
2022/09/16 11:42:31;;;;;;;2.67;2.50;;;20.30;83.10;;;;;;5013803;28;20423;-65
2022/09/16 11:45:29;;;;;;;2.70;2.60;;;20.30;87.00;;;;;;5015078;28;20394;-64
2022/09/16 11:48:22;;;;;;;2.60;2.40;;;20.40;84.40;;;;;;5015123;28;20449;-65
2022/09/16 11:50:57;;;;;;;4.50;4.10;;;20.60;83.70;;;;;;5014967;28;20414;-65
2022/09/16 11:53:52;;;;;;;6.27;2.57;;;20.80;85.00;;;;;;5015507;28;20390;-65
2022/09/16 11:56:25;;;;;;;4.77;4.40;;;21.00;85.70;;;;;;5015333;28;20827;-65
2022/09/16 11:59:00;;;;;;;2.10;1.87;;;21.40;84.50;;;;;;5013088;28;20788;-65
2022/09/16 12:01:41;;;;;;;1.80;1.70;;;21.50;79.80;;;;;;5015413;28;20385;-65
2022/09/16 12:04:20;;;;;;;4.23;3.93;;;21.70;78.70;;;;;;5014715;28;20406;-65
2022/09/16 12:06:51;;;;;;;5.33;1.97;;;21.80;78.00;;;;;;5014153;28;20464;-65
2022/09/16 12:09:27;;;;;;;2.77;2.00;;;21.80;75.70;;;;;;5014774;28;20440;-65
2022/09/16 12:12:01;;;;;;;4.27;4.03;;;21.90;75.90;;;;;;5014709;28;20394;-65
2022/09/16 12:14:42;;;;;;;3.67;3.53;;;21.90;76.50;;;;;;5014462;28;21013;-65
2022/09/16 12:17:20;;;;;;;2.57;2.37;;;21.90;75.30;;;;;;5014777;28;20474;-65
2022/09/16 12:19:58;;;;;;;2.30;1.97;;;21.80;73.70;;;;;;5014133;28;20408;-65
2022/09/16 12:22:48;;;;;;;3.30;3.00;;;21.70;73.50;;;;;;5014467;28;20432;-65
2022/09/16 12:25:31;;;;;;;3.47;3.20;;;21.40;71.20;;;;;;5014686;28;20801;-65
2022/09/16 12:28:28;;;;;;;3.00;2.80;;;21.00;72.40;;;;;;5013216;28;20465;-64
2022/09/16 12:31:20;;;;;;;2.60;2.40;;;20.80;73.70;;;;;;4996244;28;20434;-65
2022/09/16 12:33:55;;;;;;;3.67;1.80;;;20.60;77.40;;;;;;4995750;28;20446;-65
2022/09/16 12:36:32;;;;;;;5.07;4.70;;;20.40;75.90;;;;;;4994322;28;20458;-65
2022/09/16 12:38:58;;;;;;;2.13;1.30;;;20.20;76.80;;;;;;4993328;28;20399;-65
2022/09/16 12:41:40;;;;;;;2.10;1.90;;;20.00;83.00;;;;;;5012462;28;20516;-64
2022/09/16 12:44:18;;;;;;;4.63;4.33;;;19.80;91.40;;;;;;4972827;28;20408;-64
2022/09/16 12:47:13;;;;;;;2.17;1.90;;;19.50;93.30;;;;;;4971032;28;20475;-64
2022/09/16 12:50:25;;;;;;;4.57;4.17;;;19.10;95.10;;;;;;4972219;28;20420;-64
2022/09/16 12:53:11;;;;;;;3.13;2.50;;;18.80;96.30;;;;;;4968425;28;20478;-64
2022/09/16 12:55:53;;;;;;;3.40;2.63;;;18.60;97.40;;;;;;4970607;28;20547;-65
2022/09/16 12:58:30;;;;;;;4.50;1.80;;;18.50;99.40;;;;;;4972723;28;20400;-64
2022/09/16 13:01:10;;;;;;;2.67;2.40;;;18.40;99.70;;;;;;4972600;28;20416;-64
2022/09/16 13:03:45;;;;;;;2.57;2.37;;;18.40;98.90;;;;;;4972086;28;20804;-65
2022/09/16 13:06:25;;;;;;;4.13;2.57;;;18.40;99.60;;;;;;4972356;28;20459;-64
2022/09/16 13:08:51;;;;;;;2.60;2.40;;;18.30;97.40;;;;;;4955674;28;20896;-64
2022/09/16 13:11:24;;;;;;;2.10;2.10;;;18.10;96.50;;;;;;4972371;28;20466;-64
2022/09/16 13:13:54;;;;;;;2.00;1.20;;;18.00;97.20;;;;;;4971816;28;20404;-64
2022/09/16 13:16:50;;;;;;;3.67;3.57;;;17.80;97.70;;;;;;4972327;28;20412;-64
2022/09/16 13:19:28;;;;;;;1.20;1.20;;;17.70;98.10;;;;;;4972303;28;20420;-64
2022/09/16 13:21:57;;;;;;;1.10;0.87;;;17.30;98.50;;;;;;4987390;28;20462;-64